sensor_id;sensor_type;location;lat;lon;timestamp;P1;durP1;ratioP1;P2;durP2;ratioP2
51612;SDS011;37694;51.748;14.326;2023-02-15T00:01:42;10.77;;;7.88;;
51612;SDS011;37694;51.748;14.326;2023-02-15T00:04:09;16.88;;;8.27;;
51612;SDS011;37694;51.748;14.326;2023-02-15T00:06:37;11.88;;;8.43;;
51612;SDS011;37694;51.748;14.326;2023-02-15T00:09:03;12.57;;;7.88;;
51612;SDS011;37694;51.748;14.326;2023-02-15T00:11:28;9.18;;;7.70;;
51612;SDS011;37694;51.748;14.326;2023-02-15T00:16:34;10.10;;;8.30;;
51612;SDS011;37694;51.748;14.326;2023-02-15T00:19:00;9.20;;;7.70;;
51612;SDS011;37694;51.748;14.326;2023-02-15T00:21:27;10.63;;;8.25;;
51612;SDS011;37694;51.748;14.326;2023-02-15T00:23:54;11.93;;;7.68;;
51612;SDS011;37694;51.748;14.326;2023-02-15T00:26:20;11.07;;;8.65;;
51612;SDS011;37694;51.748;14.326;2023-02-15T00:28:46;11.23;;;8.25;;
51612;SDS011;37694;51.748;14.326;2023-02-15T00:31:12;9.82;;;7.20;;
51612;SDS011;37694;51.748;14.326;2023-02-15T00:33:38;9.65;;;8.65;;
51612;SDS011;37694;51.748;14.326;2023-02-15T00:36:05;7.63;;;6.93;;
51612;SDS011;37694;51.748;14.326;2023-02-15T00:38:32;8.88;;;7.60;;
51612;SDS011;37694;51.748;14.326;2023-02-15T00:40:59;9.88;;;8.43;;
51612;SDS011;37694;51.748;14.326;2023-02-15T00:43:27;10.82;;;8.82;;
51612;SDS011;37694;51.748;14.326;2023-02-15T00:45:55;9.32;;;7.80;;
51612;SDS011;37694;51.748;14.326;2023-02-15T00:48:21;12.27;;;8.35;;
51612;SDS011;37694;51.748;14.326;2023-02-15T00:50:48;10.32;;;8.40;;
51612;SDS011;37694;51.748;14.326;2023-02-15T00:53:17;8.80;;;7.90;;
51612;SDS011;37694;51.748;14.326;2023-02-15T00:55:42;9.35;;;7.40;;
51612;SDS011;37694;51.748;14.326;2023-02-15T00:58:09;10.75;;;8.55;;
51612;SDS011;37694;51.748;14.326;2023-02-15T01:00:35;8.32;;;7.45;;
51612;SDS011;37694;51.748;14.326;2023-02-15T01:03:02;9.80;;;8.50;;
51612;SDS011;37694;51.748;14.326;2023-02-15T01:05:28;10.55;;;8.52;;
51612;SDS011;37694;51.748;14.326;2023-02-15T01:07:57;9.98;;;8.35;;
51612;SDS011;37694;51.748;14.326;2023-02-15T01:10:24;10.27;;;8.43;;
51612;SDS011;37694;51.748;14.326;2023-02-15T01:12:51;9.77;;;8.70;;
51612;SDS011;37694;51.748;14.326;2023-02-15T01:15:17;10.32;;;8.80;;
51612;SDS011;37694;51.748;14.326;2023-02-15T01:17:43;10.98;;;8.27;;
51612;SDS011;37694;51.748;14.326;2023-02-15T01:20:10;10.18;;;8.70;;
51612;SDS011;37694;51.748;14.326;2023-02-15T01:22:36;9.13;;;8.23;;
51612;SDS011;37694;51.748;14.326;2023-02-15T01:25:02;9.32;;;8.00;;
51612;SDS011;37694;51.748;14.326;2023-02-15T01:27:28;9.57;;;8.57;;
51612;SDS011;37694;51.748;14.326;2023-02-15T01:29:57;8.55;;;7.68;;
51612;SDS011;37694;51.748;14.326;2023-02-15T01:32:23;9.35;;;8.25;;
51612;SDS011;37694;51.748;14.326;2023-02-15T01:34:49;12.50;;;9.00;;
51612;SDS011;37694;51.748;14.326;2023-02-15T01:37:14;9.70;;;8.57;;
51612;SDS011;37694;51.748;14.326;2023-02-15T01:39:40;10.05;;;8.15;;
51612;SDS011;37694;51.748;14.326;2023-02-15T01:42:09;9.13;;;8.10;;
51612;SDS011;37694;51.748;14.326;2023-02-15T01:44:46;11.32;;;8.50;;
51612;SDS011;37694;51.748;14.326;2023-02-15T01:47:34;8.90;;;7.90;;
51612;SDS011;37694;51.748;14.326;2023-02-15T01:50:47;11.55;;;8.75;;
51612;SDS011;37694;51.748;14.326;2023-02-15T01:53:38;9.60;;;8.60;;
51612;SDS011;37694;51.748;14.326;2023-02-15T01:55:41;10.25;;;8.60;;
51612;SDS011;37694;51.748;14.326;2023-02-15T01:58:11;12.85;;;9.63;;
51612;SDS011;37694;51.748;14.326;2023-02-15T02:00:39;9.00;;;8.05;;
51612;SDS011;37694;51.748;14.326;2023-02-15T02:03:05;10.25;;;8.98;;
51612;SDS011;37694;51.748;14.326;2023-02-15T02:05:31;10.35;;;8.38;;
51612;SDS011;37694;51.748;14.326;2023-02-15T02:07:58;8.95;;;8.05;;
51612;SDS011;37694;51.748;14.326;2023-02-15T02:10:26;11.43;;;8.88;;
51612;SDS011;37694;51.748;14.326;2023-02-15T02:12:52;9.90;;;8.65;;
51612;SDS011;37694;51.748;14.326;2023-02-15T02:15:24;10.68;;;8.88;;
51612;SDS011;37694;51.748;14.326;2023-02-15T02:35:16;11.50;;;8.15;;
51612;SDS011;37694;51.748;14.326;2023-02-15T02:38:08;10.63;;;8.27;;
51612;SDS011;37694;51.748;14.326;2023-02-15T02:44:02;8.82;;;7.93;;
51612;SDS011;37694;51.748;14.326;2023-02-15T02:49:36;10.75;;;8.73;;
51612;SDS011;37694;51.748;14.326;2023-02-15T02:52:33;9.48;;;8.27;;
51612;SDS011;37694;51.748;14.326;2023-02-15T03:00:18;11.30;;;8.85;;
51612;SDS011;37694;51.748;14.326;2023-02-15T03:02:46;9.40;;;8.27;;
51612;SDS011;37694;51.748;14.326;2023-02-15T03:05:19;9.38;;;8.38;;
51612;SDS011;37694;51.748;14.326;2023-02-15T03:07:50;8.93;;;7.65;;
51612;SDS011;37694;51.748;14.326;2023-02-15T03:10:18;10.57;;;8.68;;
51612;SDS011;37694;51.748;14.326;2023-02-15T03:12:47;10.43;;;9.02;;
51612;SDS011;37694;51.748;14.326;2023-02-15T03:15:16;10.15;;;8.38;;
51612;SDS011;37694;51.748;14.326;2023-02-15T03:17:47;9.27;;;8.30;;
51612;SDS011;37694;51.748;14.326;2023-02-15T03:20:21;10.30;;;9.05;;
51612;SDS011;37694;51.748;14.326;2023-02-15T03:22:51;9.35;;;8.32;;
51612;SDS011;37694;51.748;14.326;2023-02-15T03:25:33;10.53;;;9.10;;
51612;SDS011;37694;51.748;14.326;2023-02-15T03:28:03;8.60;;;7.70;;
51612;SDS011;37694;51.748;14.326;2023-02-15T03:30:34;8.55;;;7.65;;
51612;SDS011;37694;51.748;14.326;2023-02-15T03:33:01;9.43;;;8.25;;
51612;SDS011;37694;51.748;14.326;2023-02-15T03:38:33;9.43;;;8.00;;
51612;SDS011;37694;51.748;14.326;2023-02-15T03:41:07;8.50;;;7.57;;
51612;SDS011;37694;51.748;14.326;2023-02-15T03:46:37;8.75;;;7.78;;
51612;SDS011;37694;51.748;14.326;2023-02-15T03:49:10;10.38;;;8.07;;
51612;SDS011;37694;51.748;14.326;2023-02-15T03:51:41;9.10;;;8.20;;
51612;SDS011;37694;51.748;14.326;2023-02-15T03:54:10;9.23;;;8.30;;
51612;SDS011;37694;51.748;14.326;2023-02-15T03:56:59;10.20;;;8.27;;
51612;SDS011;37694;51.748;14.326;2023-02-15T03:59:45;11.20;;;8.30;;
51612;SDS011;37694;51.748;14.326;2023-02-15T04:02:31;11.38;;;8.32;;
51612;SDS011;37694;51.748;14.326;2023-02-15T04:05:06;9.00;;;8.10;;
51612;SDS011;37694;51.748;14.326;2023-02-15T04:07:32;11.75;;;8.00;;
51612;SDS011;37694;51.748;14.326;2023-02-15T04:09:57;8.63;;;7.72;;
51612;SDS011;37694;51.748;14.326;2023-02-15T04:12:42;16.40;;;8.23;;
51612;SDS011;37694;51.748;14.326;2023-02-15T04:15:11;9.77;;;7.90;;
51612;SDS011;37694;51.748;14.326;2023-02-15T04:17:56;19.50;;;7.88;;
51612;SDS011;37694;51.748;14.326;2023-02-15T04:20:22;13.25;;;8.40;;
51612;SDS011;37694;51.748;14.326;2023-02-15T04:23:06;11.80;;;7.90;;
51612;SDS011;37694;51.748;14.326;2023-02-15T04:25:51;12.32;;;8.50;;
51612;SDS011;37694;51.748;14.326;2023-02-15T04:28:17;10.32;;;8.45;;
51612;SDS011;37694;51.748;14.326;2023-02-15T04:30:42;10.25;;;8.23;;
51612;SDS011;37694;51.748;14.326;2023-02-15T04:33:08;15.07;;;8.45;;
51612;SDS011;37694;51.748;14.326;2023-02-15T04:35:34;9.90;;;7.68;;
51612;SDS011;37694;51.748;14.326;2023-02-15T04:37:59;10.02;;;7.38;;
51612;SDS011;37694;51.748;14.326;2023-02-15T04:40:25;10.88;;;7.68;;
51612;SDS011;37694;51.748;14.326;2023-02-15T04:42:51;7.93;;;7.13;;
51612;SDS011;37694;51.748;14.326;2023-02-15T04:45:17;10.63;;;7.68;;
51612;SDS011;37694;51.748;14.326;2023-02-15T04:47:43;8.52;;;7.07;;
51612;SDS011;37694;51.748;14.326;2023-02-15T04:50:09;9.48;;;7.07;;
51612;SDS011;37694;51.748;14.326;2023-02-15T04:52:35;10.55;;;6.80;;
51612;SDS011;37694;51.748;14.326;2023-02-15T04:55:01;11.15;;;7.63;;
51612;SDS011;37694;51.748;14.326;2023-02-15T04:57:26;10.38;;;7.80;;
51612;SDS011;37694;51.748;14.326;2023-02-15T04:59:52;11.25;;;7.35;;
51612;SDS011;37694;51.748;14.326;2023-02-15T05:02:18;8.13;;;7.05;;
51612;SDS011;37694;51.748;14.326;2023-02-15T05:04:44;10.18;;;6.85;;
51612;SDS011;37694;51.748;14.326;2023-02-15T05:07:09;8.90;;;7.50;;
51612;SDS011;37694;51.748;14.326;2023-02-15T05:09:35;10.40;;;7.13;;
51612;SDS011;37694;51.748;14.326;2023-02-15T05:12:01;8.07;;;6.88;;
51612;SDS011;37694;51.748;14.326;2023-02-15T05:14:26;7.65;;;6.85;;
51612;SDS011;37694;51.748;14.326;2023-02-15T05:16:52;9.75;;;7.32;;
51612;SDS011;37694;51.748;14.326;2023-02-15T05:19:19;7.63;;;6.90;;
51612;SDS011;37694;51.748;14.326;2023-02-15T05:21:44;10.18;;;7.10;;
51612;SDS011;37694;51.748;14.326;2023-02-15T05:24:10;7.65;;;6.95;;
51612;SDS011;37694;51.748;14.326;2023-02-15T05:26:54;8.30;;;6.38;;
51612;SDS011;37694;51.748;14.326;2023-02-15T05:29:38;9.88;;;7.18;;
51612;SDS011;37694;51.748;14.326;2023-02-15T05:32:04;7.22;;;6.53;;
51612;SDS011;37694;51.748;14.326;2023-02-15T05:34:30;7.55;;;6.80;;
51612;SDS011;37694;51.748;14.326;2023-02-15T05:36:55;7.10;;;6.40;;
51612;SDS011;37694;51.748;14.326;2023-02-15T05:39:21;7.15;;;6.43;;
51612;SDS011;37694;51.748;14.326;2023-02-15T05:41:47;7.13;;;6.43;;
51612;SDS011;37694;51.748;14.326;2023-02-15T05:44:12;7.85;;;7.05;;
51612;SDS011;37694;51.748;14.326;2023-02-15T05:46:38;7.70;;;6.80;;
51612;SDS011;37694;51.748;14.326;2023-02-15T05:49:04;10.95;;;7.13;;
51612;SDS011;37694;51.748;14.326;2023-02-15T05:51:29;7.72;;;6.93;;
51612;SDS011;37694;51.748;14.326;2023-02-15T05:53:55;7.47;;;6.75;;
51612;SDS011;37694;51.748;14.326;2023-02-15T05:56:21;9.18;;;6.00;;
51612;SDS011;37694;51.748;14.326;2023-02-15T05:58:47;9.48;;;6.85;;
51612;SDS011;37694;51.748;14.326;2023-02-15T06:03:43;7.38;;;6.68;;
51612;SDS011;37694;51.748;14.326;2023-02-15T06:06:09;11.05;;;6.65;;
51612;SDS011;37694;51.748;14.326;2023-02-15T06:08:36;7.65;;;6.53;;
51612;SDS011;37694;51.748;14.326;2023-02-15T06:11:03;7.72;;;6.93;;
51612;SDS011;37694;51.748;14.326;2023-02-15T06:13:29;12.02;;;6.70;;
51612;SDS011;37694;51.748;14.326;2023-02-15T06:15:55;8.27;;;6.75;;
51612;SDS011;37694;51.748;14.326;2023-02-15T06:18:21;8.68;;;6.93;;
51612;SDS011;37694;51.748;14.326;2023-02-15T06:20:47;10.80;;;6.60;;
51612;SDS011;37694;51.748;14.326;2023-02-15T06:23:13;9.80;;;6.85;;
51612;SDS011;37694;51.748;14.326;2023-02-15T06:25:39;12.00;;;7.35;;
51612;SDS011;37694;51.748;14.326;2023-02-15T06:28:05;8.65;;;6.65;;
51612;SDS011;37694;51.748;14.326;2023-02-15T06:30:30;12.80;;;6.80;;
51612;SDS011;37694;51.748;14.326;2023-02-15T06:32:56;9.68;;;6.15;;
51612;SDS011;37694;51.748;14.326;2023-02-15T06:35:22;10.93;;;6.85;;
51612;SDS011;37694;51.748;14.326;2023-02-15T06:37:48;10.20;;;6.50;;
51612;SDS011;37694;51.748;14.326;2023-02-15T06:40:14;8.95;;;6.90;;
51612;SDS011;37694;51.748;14.326;2023-02-15T06:42:43;11.25;;;7.10;;
51612;SDS011;37694;51.748;14.326;2023-02-15T06:45:09;9.82;;;6.30;;
51612;SDS011;37694;51.748;14.326;2023-02-15T06:47:35;14.30;;;7.70;;
51612;SDS011;37694;51.748;14.326;2023-02-15T06:50:00;21.40;;;7.95;;
51612;SDS011;37694;51.748;14.326;2023-02-15T06:52:26;13.05;;;7.50;;
51612;SDS011;37694;51.748;14.326;2023-02-15T06:54:53;8.52;;;7.22;;
51612;SDS011;37694;51.748;14.326;2023-02-15T06:57:18;9.35;;;6.80;;
51612;SDS011;37694;51.748;14.326;2023-02-15T06:59:44;16.90;;;7.70;;
51612;SDS011;37694;51.748;14.326;2023-02-15T07:02:13;12.20;;;7.45;;
51612;SDS011;37694;51.748;14.326;2023-02-15T07:04:39;12.68;;;7.63;;
51612;SDS011;37694;51.748;14.326;2023-02-15T07:07:07;15.32;;;7.47;;
51612;SDS011;37694;51.748;14.326;2023-02-15T07:09:34;14.05;;;7.30;;
51612;SDS011;37694;51.748;14.326;2023-02-15T07:11:59;32.33;;;8.95;;
51612;SDS011;37694;51.748;14.326;2023-02-15T07:14:44;43.80;;;10.48;;
51612;SDS011;37694;51.748;14.326;2023-02-15T07:17:09;32.13;;;10.65;;
51612;SDS011;37694;51.748;14.326;2023-02-15T07:19:35;35.67;;;9.43;;
51612;SDS011;37694;51.748;14.326;2023-02-15T07:22:01;47.63;;;11.27;;
51612;SDS011;37694;51.748;14.326;2023-02-15T07:24:28;42.42;;;12.10;;
51612;SDS011;37694;51.748;14.326;2023-02-15T07:26:54;48.90;;;11.63;;
51612;SDS011;37694;51.748;14.326;2023-02-15T07:29:19;39.25;;;10.57;;
51612;SDS011;37694;51.748;14.326;2023-02-15T07:31:45;57.13;;;12.73;;
51612;SDS011;37694;51.748;14.326;2023-02-15T07:34:11;52.45;;;11.65;;
51612;SDS011;37694;51.748;14.326;2023-02-15T07:36:37;35.42;;;12.27;;
51612;SDS011;37694;51.748;14.326;2023-02-15T07:39:02;28.23;;;11.07;;
51612;SDS011;37694;51.748;14.326;2023-02-15T07:41:28;38.92;;;12.18;;
51612;SDS011;37694;51.748;14.326;2023-02-15T07:43:54;31.45;;;9.73;;
51612;SDS011;37694;51.748;14.326;2023-02-15T07:46:20;29.95;;;11.70;;
51612;SDS011;37694;51.748;14.326;2023-02-15T07:48:46;37.85;;;11.73;;
51612;SDS011;37694;51.748;14.326;2023-02-15T07:51:12;38.25;;;11.90;;
51612;SDS011;37694;51.748;14.326;2023-02-15T07:53:39;44.20;;;12.43;;
51612;SDS011;37694;51.748;14.326;2023-02-15T07:56:09;38.20;;;11.93;;
51612;SDS011;37694;51.748;14.326;2023-02-15T07:58:36;33.75;;;12.10;;
51612;SDS011;37694;51.748;14.326;2023-02-15T08:03:43;19.20;;;10.27;;
51612;SDS011;37694;51.748;14.326;2023-02-15T08:06:08;24.70;;;10.00;;
51612;SDS011;37694;51.748;14.326;2023-02-15T08:08:36;46.45;;;13.27;;
51612;SDS011;37694;51.748;14.326;2023-02-15T08:11:03;21.52;;;9.70;;
51612;SDS011;37694;51.748;14.326;2023-02-15T08:14:11;21.85;;;10.88;;
51612;SDS011;37694;51.748;14.326;2023-02-15T08:16:43;37.55;;;10.80;;
51612;SDS011;37694;51.748;14.326;2023-02-15T08:21:52;30.05;;;10.82;;
51612;SDS011;37694;51.748;14.326;2023-02-15T08:24:20;24.42;;;10.50;;
51612;SDS011;37694;51.748;14.326;2023-02-15T08:26:47;27.08;;;11.10;;
51612;SDS011;37694;51.748;14.326;2023-02-15T08:29:14;19.25;;;10.73;;
51612;SDS011;37694;51.748;14.326;2023-02-15T08:31:41;21.40;;;10.23;;
51612;SDS011;37694;51.748;14.326;2023-02-15T08:34:10;31.05;;;10.27;;
51612;SDS011;37694;51.748;14.326;2023-02-15T08:36:39;23.77;;;10.25;;
51612;SDS011;37694;51.748;14.326;2023-02-15T08:39:05;29.85;;;11.15;;
51612;SDS011;37694;51.748;14.326;2023-02-15T08:41:34;28.08;;;10.20;;
51612;SDS011;37694;51.748;14.326;2023-02-15T08:44:02;15.68;;;9.30;;
51612;SDS011;37694;51.748;14.326;2023-02-15T08:46:31;15.07;;;9.00;;
51612;SDS011;37694;51.748;14.326;2023-02-15T08:49:01;26.58;;;10.23;;
51612;SDS011;37694;51.748;14.326;2023-02-15T08:51:29;24.73;;;9.85;;
51612;SDS011;37694;51.748;14.326;2023-02-15T08:53:57;26.63;;;11.55;;
51612;SDS011;37694;51.748;14.326;2023-02-15T08:56:26;16.83;;;9.85;;
51612;SDS011;37694;51.748;14.326;2023-02-15T08:58:53;16.65;;;10.30;;
51612;SDS011;37694;51.748;14.326;2023-02-15T09:01:20;18.02;;;10.18;;
51612;SDS011;37694;51.748;14.326;2023-02-15T09:03:51;16.80;;;9.70;;
51612;SDS011;37694;51.748;14.326;2023-02-15T09:06:21;19.23;;;9.95;;
51612;SDS011;37694;51.748;14.326;2023-02-15T09:08:47;16.63;;;8.95;;
51612;SDS011;37694;51.748;14.326;2023-02-15T09:11:17;15.40;;;9.65;;
51612;SDS011;37694;51.748;14.326;2023-02-15T09:13:49;21.25;;;10.18;;
51612;SDS011;37694;51.748;14.326;2023-02-15T09:16:15;18.38;;;9.27;;
51612;SDS011;37694;51.748;14.326;2023-02-15T09:18:44;18.65;;;9.60;;
51612;SDS011;37694;51.748;14.326;2023-02-15T09:21:10;15.00;;;9.38;;
51612;SDS011;37694;51.748;14.326;2023-02-15T09:23:41;14.88;;;8.75;;
51612;SDS011;37694;51.748;14.326;2023-02-15T09:26:08;19.33;;;10.27;;
51612;SDS011;37694;51.748;14.326;2023-02-15T09:28:36;13.90;;;8.65;;
51612;SDS011;37694;51.748;14.326;2023-02-15T09:33:33;16.65;;;9.43;;
51612;SDS011;37694;51.748;14.326;2023-02-15T09:36:00;14.82;;;9.75;;
51612;SDS011;37694;51.748;14.326;2023-02-15T09:38:26;15.10;;;9.40;;
51612;SDS011;37694;51.748;14.326;2023-02-15T09:46:13;16.33;;;9.55;;
51612;SDS011;37694;51.748;14.326;2023-02-15T09:49:10;20.05;;;8.85;;
51612;SDS011;37694;51.748;14.326;2023-02-15T09:51:53;22.75;;;9.57;;
51612;SDS011;37694;51.748;14.326;2023-02-15T09:54:42;15.60;;;8.98;;
51612;SDS011;37694;51.748;14.326;2023-02-15T09:57:34;25.42;;;9.82;;
51612;SDS011;37694;51.748;14.326;2023-02-15T10:22:03;29.80;;;9.25;;
51612;SDS011;37694;51.748;14.326;2023-02-15T10:27:22;15.77;;;8.90;;
51612;SDS011;37694;51.748;14.326;2023-02-15T10:30:00;26.02;;;8.90;;
51612;SDS011;37694;51.748;14.326;2023-02-15T10:32:31;18.67;;;8.07;;
51612;SDS011;37694;51.748;14.326;2023-02-15T10:37:46;18.73;;;7.93;;
51612;SDS011;37694;51.748;14.326;2023-02-15T10:52:10;13.10;;;8.40;;
51612;SDS011;37694;51.748;14.326;2023-02-15T11:00:22;10.57;;;7.95;;
51612;SDS011;37694;51.748;14.326;2023-02-15T11:03:05;13.20;;;7.85;;
51612;SDS011;37694;51.748;14.326;2023-02-15T11:08:14;21.05;;;8.55;;
51612;SDS011;37694;51.748;14.326;2023-02-15T11:10:44;19.65;;;8.88;;
51612;SDS011;37694;51.748;14.326;2023-02-15T11:13:27;15.57;;;8.25;;
51612;SDS011;37694;51.748;14.326;2023-02-15T11:16:05;14.07;;;8.68;;
51612;SDS011;37694;51.748;14.326;2023-02-15T11:18:44;13.75;;;7.82;;
51612;SDS011;37694;51.748;14.326;2023-02-15T11:23:52;13.18;;;8.07;;
51612;SDS011;37694;51.748;14.326;2023-02-15T11:26:38;24.05;;;8.48;;
51612;SDS011;37694;51.748;14.326;2023-02-15T11:29:10;15.85;;;7.72;;
51612;SDS011;37694;51.748;14.326;2023-02-15T11:32:22;20.48;;;8.73;;
51612;SDS011;37694;51.748;14.326;2023-02-15T11:42:51;21.30;;;8.15;;
51612;SDS011;37694;51.748;14.326;2023-02-15T11:47:49;18.17;;;7.00;;
51612;SDS011;37694;51.748;14.326;2023-02-15T11:50:15;22.52;;;7.22;;
51612;SDS011;37694;51.748;14.326;2023-02-15T11:52:47;18.08;;;7.45;;
51612;SDS011;37694;51.748;14.326;2023-02-15T11:55:14;18.83;;;7.82;;
51612;SDS011;37694;51.748;14.326;2023-02-15T11:57:46;11.40;;;6.78;;
51612;SDS011;37694;51.748;14.326;2023-02-15T12:00:38;33.00;;;8.40;;
51612;SDS011;37694;51.748;14.326;2023-02-15T12:06:03;17.48;;;7.75;;
51612;SDS011;37694;51.748;14.326;2023-02-15T12:08:40;13.35;;;7.00;;
51612;SDS011;37694;51.748;14.326;2023-02-15T12:11:12;18.00;;;7.15;;
51612;SDS011;37694;51.748;14.326;2023-02-15T12:14:02;18.38;;;7.72;;
51612;SDS011;37694;51.748;14.326;2023-02-15T12:16:32;16.02;;;7.47;;
51612;SDS011;37694;51.748;14.326;2023-02-15T12:19:09;17.48;;;7.57;;
51612;SDS011;37694;51.748;14.326;2023-02-15T12:21:52;13.48;;;7.38;;
51612;SDS011;37694;51.748;14.326;2023-02-15T12:26:56;34.88;;;7.13;;
51612;SDS011;37694;51.748;14.326;2023-02-15T12:29:26;13.27;;;8.57;;
51612;SDS011;37694;51.748;14.326;2023-02-15T12:31:55;14.90;;;12.73;;
51612;SDS011;37694;51.748;14.326;2023-02-15T12:34:25;28.40;;;15.20;;
51612;SDS011;37694;51.748;14.326;2023-02-15T12:36:58;22.75;;;15.50;;
51612;SDS011;37694;51.748;14.326;2023-02-15T12:39:28;24.33;;;15.05;;
51612;SDS011;37694;51.748;14.326;2023-02-15T12:44:30;22.20;;;15.40;;
51612;SDS011;37694;51.748;14.326;2023-02-15T12:46:59;19.45;;;15.30;;
51612;SDS011;37694;51.748;14.326;2023-02-15T12:49:26;20.85;;;16.23;;
51612;SDS011;37694;51.748;14.326;2023-02-15T12:54:51;21.70;;;17.42;;
51612;SDS011;37694;51.748;14.326;2023-02-15T12:57:21;22.30;;;17.85;;
51612;SDS011;37694;51.748;14.326;2023-02-15T12:59:51;25.02;;;17.92;;
51612;SDS011;37694;51.748;14.326;2023-02-15T13:02:21;22.15;;;18.27;;
51612;SDS011;37694;51.748;14.326;2023-02-15T13:04:50;21.35;;;18.67;;
51612;SDS011;37694;51.748;14.326;2023-02-15T13:07:16;22.52;;;19.23;;
51612;SDS011;37694;51.748;14.326;2023-02-15T13:09:42;25.67;;;18.98;;
51612;SDS011;37694;51.748;14.326;2023-02-15T13:12:17;21.00;;;17.35;;
51612;SDS011;37694;51.748;14.326;2023-02-15T13:14:46;16.95;;;14.68;;
51612;SDS011;37694;51.748;14.326;2023-02-15T13:17:16;18.42;;;13.75;;
51612;SDS011;37694;51.748;14.326;2023-02-15T13:19:46;19.83;;;13.88;;
51612;SDS011;37694;51.748;14.326;2023-02-15T13:22:16;17.10;;;13.00;;
51612;SDS011;37694;51.748;14.326;2023-02-15T13:27:50;15.68;;;11.88;;
51612;SDS011;37694;51.748;14.326;2023-02-15T13:32:54;16.55;;;11.10;;
51612;SDS011;37694;51.748;14.326;2023-02-15T13:35:24;14.35;;;11.35;;
51612;SDS011;37694;51.748;14.326;2023-02-15T13:37:56;15.52;;;11.70;;
51612;SDS011;37694;51.748;14.326;2023-02-15T13:57:20;19.30;;;9.80;;
51612;SDS011;37694;51.748;14.326;2023-02-15T14:05:24;11.98;;;9.48;;
51612;SDS011;37694;51.748;14.326;2023-02-15T14:10:43;14.40;;;8.73;;
51612;SDS011;37694;51.748;14.326;2023-02-15T14:18:55;15.20;;;8.95;;
51612;SDS011;37694;51.748;14.326;2023-02-15T14:27:27;11.88;;;7.75;;
51612;SDS011;37694;51.748;14.326;2023-02-15T14:30:26;15.60;;;9.18;;
51612;SDS011;37694;51.748;14.326;2023-02-15T14:33:00;14.15;;;7.75;;
51612;SDS011;37694;51.748;14.326;2023-02-15T14:35:32;16.40;;;9.18;;
51612;SDS011;37694;51.748;14.326;2023-02-15T14:44:28;9.30;;;8.00;;
51612;SDS011;37694;51.748;14.326;2023-02-15T14:46:54;14.40;;;7.85;;
51612;SDS011;37694;51.748;14.326;2023-02-15T14:49:23;12.52;;;7.45;;
51612;SDS011;37694;51.748;14.326;2023-02-15T14:59:36;12.60;;;8.40;;
51612;SDS011;37694;51.748;14.326;2023-02-15T15:04:34;17.10;;;7.80;;
51612;SDS011;37694;51.748;14.326;2023-02-15T15:09:59;18.63;;;8.35;;
51612;SDS011;37694;51.748;14.326;2023-02-15T15:12:40;17.13;;;8.43;;
51612;SDS011;37694;51.748;14.326;2023-02-15T15:17:54;13.05;;;8.40;;
51612;SDS011;37694;51.748;14.326;2023-02-15T15:20:46;10.35;;;8.40;;
51612;SDS011;37694;51.748;14.326;2023-02-15T15:30:59;11.45;;;7.78;;
51612;SDS011;37694;51.748;14.326;2023-02-15T15:34:17;12.75;;;8.25;;
51612;SDS011;37694;51.748;14.326;2023-02-15T15:45:41;11.23;;;7.95;;
51612;SDS011;37694;51.748;14.326;2023-02-15T15:51:09;16.10;;;7.30;;
51612;SDS011;37694;51.748;14.326;2023-02-15T15:53:56;22.60;;;7.82;;
51612;SDS011;37694;51.748;14.326;2023-02-15T15:56:33;14.15;;;7.22;;
51612;SDS011;37694;51.748;14.326;2023-02-15T15:59:04;15.75;;;7.82;;
51612;SDS011;37694;51.748;14.326;2023-02-15T16:01:39;18.15;;;7.60;;
51612;SDS011;37694;51.748;14.326;2023-02-15T16:04:11;12.65;;;7.22;;
51612;SDS011;37694;51.748;14.326;2023-02-15T16:06:38;9.27;;;7.35;;
51612;SDS011;37694;51.748;14.326;2023-02-15T16:09:12;15.77;;;7.00;;
51612;SDS011;37694;51.748;14.326;2023-02-15T16:11:46;13.93;;;7.38;;
51612;SDS011;37694;51.748;14.326;2023-02-15T16:14:25;10.60;;;6.97;;
51612;SDS011;37694;51.748;14.326;2023-02-15T16:16:55;19.55;;;6.95;;
51612;SDS011;37694;51.748;14.326;2023-02-15T16:19:29;21.40;;;7.93;;
51612;SDS011;37694;51.748;14.326;2023-02-15T16:22:07;11.65;;;6.43;;
51612;SDS011;37694;51.748;14.326;2023-02-15T16:27:39;15.45;;;6.50;;
51612;SDS011;37694;51.748;14.326;2023-02-15T16:33:05;14.15;;;6.82;;
51612;SDS011;37694;51.748;14.326;2023-02-15T16:35:32;17.90;;;6.90;;
51612;SDS011;37694;51.748;14.326;2023-02-15T16:37:58;15.18;;;7.88;;
51612;SDS011;37694;51.748;14.326;2023-02-15T16:42:50;14.23;;;6.90;;
51612;SDS011;37694;51.748;14.326;2023-02-15T16:45:19;14.07;;;6.63;;
51612;SDS011;37694;51.748;14.326;2023-02-15T16:47:48;14.35;;;7.18;;
51612;SDS011;37694;51.748;14.326;2023-02-15T16:50:18;11.05;;;6.88;;
51612;SDS011;37694;51.748;14.326;2023-02-15T16:52:47;12.07;;;6.97;;
51612;SDS011;37694;51.748;14.326;2023-02-15T16:55:47;12.05;;;6.32;;
51612;SDS011;37694;51.748;14.326;2023-02-15T16:58:07;15.82;;;7.05;;
51612;SDS011;37694;51.748;14.326;2023-02-15T17:00:38;14.73;;;6.28;;
51612;SDS011;37694;51.748;14.326;2023-02-15T17:08:17;17.67;;;6.38;;
51612;SDS011;37694;51.748;14.326;2023-02-15T17:16:28;11.73;;;6.70;;
51612;SDS011;37694;51.748;14.326;2023-02-15T17:18:56;16.02;;;5.90;;
51612;SDS011;37694;51.748;14.326;2023-02-15T17:21:25;14.40;;;5.70;;
51612;SDS011;37694;51.748;14.326;2023-02-15T17:23:58;26.85;;;5.78;;
51612;SDS011;37694;51.748;14.326;2023-02-15T17:28:57;23.60;;;5.47;;
51612;SDS011;37694;51.748;14.326;2023-02-15T17:31:34;12.25;;;4.50;;
51612;SDS011;37694;51.748;14.326;2023-02-15T17:34:00;20.73;;;4.68;;
51612;SDS011;37694;51.748;14.326;2023-02-15T17:36:27;13.57;;;4.22;;
51612;SDS011;37694;51.748;14.326;2023-02-15T17:41:28;18.00;;;4.00;;
51612;SDS011;37694;51.748;14.326;2023-02-15T17:43:55;9.63;;;3.55;;
51612;SDS011;37694;51.748;14.326;2023-02-15T17:46:21;25.27;;;3.33;;
51612;SDS011;37694;51.748;14.326;2023-02-15T17:48:48;14.75;;;3.50;;
51612;SDS011;37694;51.748;14.326;2023-02-15T17:51:16;6.70;;;2.83;;
51612;SDS011;37694;51.748;14.326;2023-02-15T17:53:44;12.43;;;5.15;;
51612;SDS011;37694;51.748;14.326;2023-02-15T17:56:30;7.72;;;4.57;;
51612;SDS011;37694;51.748;14.326;2023-02-15T17:58:57;8.82;;;4.88;;
51612;SDS011;37694;51.748;14.326;2023-02-15T18:01:22;5.70;;;3.80;;
51612;SDS011;37694;51.748;14.326;2023-02-15T18:04:10;6.35;;;3.75;;
51612;SDS011;37694;51.748;14.326;2023-02-15T18:06:56;7.72;;;4.13;;
51612;SDS011;37694;51.748;14.326;2023-02-15T18:09:41;7.25;;;4.00;;
51612;SDS011;37694;51.748;14.326;2023-02-15T18:12:29;6.40;;;3.60;;
51612;SDS011;37694;51.748;14.326;2023-02-15T18:14:56;4.85;;;3.63;;
51612;SDS011;37694;51.748;14.326;2023-02-15T18:17:33;6.07;;;3.33;;
51612;SDS011;37694;51.748;14.326;2023-02-15T18:22:42;3.60;;;2.67;;
51612;SDS011;37694;51.748;14.326;2023-02-15T18:25:12;7.18;;;2.75;;
51612;SDS011;37694;51.748;14.326;2023-02-15T18:27:40;9.63;;;3.20;;
51612;SDS011;37694;51.748;14.326;2023-02-15T18:30:06;4.82;;;2.42;;
51612;SDS011;37694;51.748;14.326;2023-02-15T18:32:34;5.18;;;2.15;;
51612;SDS011;37694;51.748;14.326;2023-02-15T18:35:02;6.15;;;2.10;;
51612;SDS011;37694;51.748;14.326;2023-02-15T18:37:29;6.47;;;2.20;;
51612;SDS011;37694;51.748;14.326;2023-02-15T18:39:59;2.10;;;1.88;;